Time,TemperatureF,DewpointF,PressureIn,WindDirection,WindDirectionDegrees,WindSpeedMPH,WindSpeedGustMPH,Humidity,HourlyPrecipIn,Conditions,Clouds,dailyrainin,SoftwareType,DateUTC
2013-02-05 00:02:00,2.0,-2.0,29.84,SW,215,8.0,11.0,80,-99.99,,,-99.99,,2013-02-05 05:02:00,
2013-02-05 00:11:00,2.0,-2.0,29.84,SW,215,8.0,11.0,80,-99.99,,,-99.99,,2013-02-05 05:11:00,
2013-02-05 00:22:00,2.0,-3.0,29.84,SW,220,9.0,11.0,80,-99.99,,,-99.99,,2013-02-05 05:22:00,
2013-02-05 00:32:00,2.0,-3.0,29.83,SW,215,7.0,11.0,80,-99.99,,,-99.99,,2013-02-05 05:32:00,
2013-02-05 00:42:00,2.0,-3.0,29.83,SW,215,7.0,11.0,80,-99.99,,,-99.99,,2013-02-05 05:42:00,
2013-02-05 00:52:00,1.0,-3.0,29.82,South,190,6.0,9.0,80,-99.99,,,-99.99,,2013-02-05 05:52:00,
2013-02-05 01:02:00,1.0,-3.0,29.82,South,190,6.0,9.0,80,-99.99,,,-99.99,,2013-02-05 06:02:00,
2013-02-05 01:21:00,1.0,-3.0,29.82,SSW,200,7.0,11.0,81,-99.99,,,-99.99,,2013-02-05 06:21:00,
2013-02-05 01:32:00,2.0,-3.0,29.81,SW,215,7.0,11.0,81,-99.99,,,-99.99,,2013-02-05 06:32:00,
2013-02-05 01:42:00,2.0,-3.0,29.81,SW,215,7.0,11.0,81,-99.99,,,-99.99,,2013-02-05 06:42:00,
2013-02-05 01:51:00,3.0,-1.0,29.81,SW,220,7.0,11.0,81,-99.99,,,-99.99,,2013-02-05 06:51:00,
2013-02-05 02:01:00,4.0,-1.0,29.80,SW,215,6.0,11.0,80,-99.99,,,-99.99,,2013-02-05 07:01:00,
2013-02-05 02:11:00,4.0,-1.0,29.80,SW,215,6.0,11.0,80,-99.99,,,-99.99,,2013-02-05 07:11:00,
2013-02-05 02:22:00,3.0,-2.0,29.80,SSW,205,7.0,10.0,80,-99.99,,,-99.99,,2013-02-05 07:22:00,
2013-02-05 02:32:00,3.0,-2.0,29.80,SW,215,8.0,11.0,80,-99.99,,,-99.99,,2013-02-05 07:32:00,
2013-02-05 02:42:00,3.0,-2.0,29.80,SW,215,8.0,11.0,80,-99.99,,,-99.99,,2013-02-05 07:42:00,
2013-02-05 02:52:00,5.0,0.0,29.79,SSW,210,7.0,11.0,80,-99.99,,,-99.99,,2013-02-05 07:52:00,
2013-02-05 03:01:00,5.0,0.0,29.79,SW,215,7.0,10.0,79,-99.99,,,-99.99,,2013-02-05 08:01:00,
2013-02-05 03:11:00,5.0,0.0,29.79,SW,215,7.0,10.0,79,-99.99,,,-99.99,,2013-02-05 08:11:00,
2013-02-05 03:21:00,4.0,-1.0,29.78,South,190,7.0,10.0,79,-99.99,,,-99.99,,2013-02-05 08:21:00,
2013-02-05 03:31:00,4.0,-1.0,29.78,SSW,210,7.0,11.0,79,-99.99,,,-99.99,,2013-02-05 08:31:00,
2013-02-05 03:41:00,4.0,-1.0,29.78,SSW,210,7.0,11.0,79,-99.99,,,-99.99,,2013-02-05 08:41:00,
2013-02-05 03:52:00,6.0,0.0,29.77,SSW,210,7.0,11.0,79,-99.99,,,-99.99,,2013-02-05 08:52:00,
2013-02-05 04:02:00,7.0,2.0,29.76,SW,220,7.0,11.0,79,-99.99,,,-99.99,,2013-02-05 09:02:00,
2013-02-05 04:11:00,7.0,2.0,29.76,SW,220,7.0,11.0,79,-99.99,,,-99.99,,2013-02-05 09:11:00,
2013-02-05 04:21:00,9.0,4.0,29.76,SSW,210,8.0,11.0,77,-99.99,,,-99.99,,2013-02-05 09:21:00,
2013-02-05 04:32:00,11.0,4.0,29.74,SW,230,8.0,14.0,73,-99.99,,,-99.99,,2013-02-05 09:32:00,
2013-02-05 04:42:00,11.0,4.0,29.74,SW,230,8.0,14.0,73,-99.99,,,-99.99,,2013-02-05 09:42:00,
2013-02-05 04:51:00,12.0,4.0,29.73,South,185,8.0,14.0,71,-99.99,,,-99.99,,2013-02-05 09:51:00,
2013-02-05 05:02:00,13.0,4.0,29.72,SSW,195,9.0,14.0,69,-99.99,,,-99.99,,2013-02-05 10:02:00,
2013-02-05 05:21:00,13.0,3.0,29.71,South,185,9.0,16.0,65,-99.99,,,-99.99,,2013-02-05 10:21:00,
2013-02-05 05:32:00,13.0,2.0,29.69,South,190,9.0,15.0,61,-99.99,,,-99.99,,2013-02-05 10:32:00,
2013-02-05 05:42:00,13.0,2.0,-100.00,South,190,9.0,15.0,61,-99.99,,,-99.99,,2013-02-05 10:42:00,
2013-02-05 05:52:00,13.0,2.0,29.70,West,260,7.0,13.0,61,-99.99,,,-99.99,,2013-02-05 10:52:00,
2013-02-05 06:01:00,13.0,3.0,29.69,South,190,7.0,11.0,62,-99.99,,,-99.99,,2013-02-05 11:01:00,
2013-02-05 06:11:00,13.0,3.0,29.69,South,190,7.0,11.0,62,-99.99,,,-99.99,,2013-02-05 11:11:00,
2013-02-05 06:22:00,13.0,3.0,29.70,SW,215,6.0,11.0,62,-99.99,,,-99.99,,2013-02-05 11:22:00,
2013-02-05 06:32:00,13.0,3.0,29.71,SW,220,6.0,11.0,62,-99.99,,,-99.99,,2013-02-05 11:32:00,
2013-02-05 06:42:00,13.0,3.0,29.71,SW,220,6.0,11.0,62,-99.99,,,-99.99,,2013-02-05 11:42:00,
2013-02-05 06:52:00,13.0,5.0,29.70,South,190,7.0,8.0,71,-99.99,,,-99.99,,2013-02-05 11:52:00,
2013-02-05 07:01:00,13.0,7.0,29.70,SSW,205,9.0,14.0,75,-99.99,,,-99.99,,2013-02-05 12:01:00,
2013-02-05 07:12:00,13.0,7.0,29.70,SSW,205,9.0,14.0,75,-99.99,,,-99.99,,2013-02-05 12:12:00,
2013-02-05 07:22:00,13.0,7.0,29.68,SSW,195,8.0,12.0,78,-99.99,,,-99.99,,2013-02-05 12:22:00,
2013-02-05 07:32:00,13.0,8.0,29.67,South,185,6.0,14.0,80,-99.99,,,-99.99,,2013-02-05 12:32:00,
2013-02-05 07:42:00,13.0,8.0,-100.00,South,185,6.0,14.0,80,-99.99,,,-99.99,,2013-02-05 12:42:00,
2013-02-05 07:52:00,13.0,9.0,29.67,South,190,8.0,14.0,82,-99.99,,,-99.99,,2013-02-05 12:52:00,
2013-02-05 08:01:00,13.0,10.0,29.65,SSE,160,8.0,16.0,84,-99.99,,,-99.99,,2013-02-05 13:01:00,
2013-02-05 08:12:00,13.0,10.0,29.65,SSE,160,8.0,16.0,84,-99.99,,,-99.99,,2013-02-05 13:12:00,
2013-02-05 08:22:00,14.0,10.0,29.65,SSW,200,7.0,13.0,85,-99.99,,,-99.99,,2013-02-05 13:22:00,
2013-02-05 08:32:00,14.0,10.0,29.64,South,170,10.0,16.0,85,-99.99,,,-99.99,,2013-02-05 13:32:00,
2013-02-05 08:42:00,14.0,10.0,29.64,South,170,10.0,16.0,85,-99.99,,,-99.99,,2013-02-05 13:42:00,
2013-02-05 08:52:00,14.0,11.0,29.64,SW,215,9.0,17.0,86,-99.99,,,-99.99,,2013-02-05 13:52:00,
2013-02-05 09:01:00,14.0,11.0,29.63,SSW,210,11.0,20.0,86,-99.99,,,-99.99,,2013-02-05 14:01:00,
2013-02-05 09:21:00,14.0,11.0,29.63,South,180,10.0,20.0,87,-99.99,,,-99.99,,2013-02-05 14:21:00,
2013-02-05 09:32:00,15.0,11.0,29.63,WSW,255,9.0,17.0,87,-99.99,,,-99.99,,2013-02-05 14:32:00,
2013-02-05 09:52:00,15.0,11.0,29.64,WSW,245,11.0,17.0,86,-99.99,,,-99.99,,2013-02-05 14:52:00,
2013-02-05 10:02:00,15.0,12.0,29.64,WSW,245,9.0,14.0,86,-99.99,,,-99.99,,2013-02-05 15:02:00,
2013-02-05 10:11:00,15.0,12.0,29.64,WSW,245,9.0,14.0,86,-99.99,,,-99.99,,2013-02-05 15:11:00,
2013-02-05 10:21:00,15.0,12.0,29.64,West,265,7.0,19.0,85,-99.99,,,-99.99,,2013-02-05 15:21:00,
2013-02-05 10:32:00,16.0,12.0,29.64,SW,230,8.0,13.0,83,-99.99,,,-99.99,,2013-02-05 15:32:00,
2013-02-05 10:42:00,16.0,12.0,29.64,SW,230,8.0,13.0,83,-99.99,,,-99.99,,2013-02-05 15:42:00,
2013-02-05 10:52:00,16.0,11.0,29.64,WSW,255,11.0,17.0,79,-99.99,,,-99.99,,2013-02-05 15:52:00,
2013-02-05 11:01:00,17.0,11.0,29.64,WSW,250,8.0,15.0,77,-99.99,,,-99.99,,2013-02-05 16:01:00,
2013-02-05 11:11:00,17.0,11.0,29.64,WSW,250,8.0,15.0,77,-99.99,,,-99.99,,2013-02-05 16:11:00,
2013-02-05 11:22:00,17.0,11.0,29.64,WSW,240,9.0,14.0,76,-99.99,,,-99.99,,2013-02-05 16:22:00,
2013-02-05 11:32:00,18.0,12.0,29.64,West,265,6.0,11.0,75,-99.99,,,-99.99,,2013-02-05 16:32:00,
2013-02-05 11:42:00,18.0,12.0,29.64,West,265,6.0,11.0,75,-99.99,,,-99.99,,2013-02-05 16:42:00,
2013-02-05 11:52:00,19.0,12.0,29.64,West,260,14.0,16.0,72,-99.99,,,-99.99,,2013-02-05 16:52:00,
2013-02-05 12:01:00,19.0,12.0,29.64,West,260,14.0,16.0,72,-99.99,,,-99.99,,2013-02-05 17:01:00,
2013-02-05 12:11:00,19.0,12.0,29.64,West,260,14.0,16.0,72,-99.99,,,-99.99,,2013-02-05 17:11:00,
2013-02-05 12:22:00,21.0,14.0,29.63,West,275,9.0,14.0,72,-99.99,,,-99.99,,2013-02-05 17:22:00,
2013-02-05 12:32:00,22.0,14.0,29.63,NW,305,6.0,13.0,71,-99.99,,,-99.99,,2013-02-05 17:32:00,
2013-02-05 12:42:00,22.0,14.0,29.63,NW,305,6.0,13.0,71,-99.99,,,-99.99,,2013-02-05 17:42:00,
2013-02-05 12:52:00,22.0,14.0,29.64,WNW,290,8.0,14.0,68,-99.99,,,-99.99,,2013-02-05 17:52:00,
2013-02-05 13:02:00,22.0,14.0,29.64,WNW,290,8.0,14.0,68,-99.99,,,-99.99,,2013-02-05 18:02:00,
2013-02-05 13:22:00,26.0,15.0,29.65,NNW,345,16.0,19.0,63,-99.99,,,-99.99,,2013-02-05 18:22:00,
2013-02-05 13:32:00,26.0,17.0,29.65,North,355,15.0,21.0,66,-99.99,,,-99.99,,2013-02-05 18:32:00,
2013-02-05 13:42:00,26.0,17.0,29.65,North,355,15.0,21.0,66,-99.99,,,-99.99,,2013-02-05 18:42:00,
2013-02-05 13:52:00,27.0,17.0,29.66,NNW,345,14.0,19.0,66,-99.99,,,-99.99,,2013-02-05 18:52:00,
2013-02-05 14:02:00,28.0,18.0,29.67,NNW,345,14.0,18.0,66,-99.99,,,-99.99,,2013-02-05 19:02:00,
2013-02-05 14:21:00,29.0,19.0,29.67,North,350,20.0,26.0,67,-99.99,,,-99.99,,2013-02-05 19:21:00,
2013-02-05 14:32:00,29.0,18.0,29.67,North,350,26.0,37.0,65,-99.99,,,-99.99,,2013-02-05 19:32:00,
2013-02-05 14:42:00,29.0,18.0,29.67,North,350,26.0,37.0,65,-99.99,,,-99.99,,2013-02-05 19:42:00,
2013-02-05 14:52:00,28.0,18.0,29.67,NNW,340,28.0,39.0,67,-99.99,,,-99.99,,2013-02-05 19:52:00,
2013-02-05 15:01:00,29.0,19.0,29.68,North,350,29.0,37.0,66,-99.99,,,-99.99,,2013-02-05 20:01:00,
2013-02-05 15:11:00,29.0,19.0,29.68,North,350,29.0,37.0,66,-99.99,,,-99.99,,2013-02-05 20:11:00,
2013-02-05 15:21:00,29.0,19.0,29.68,NNW,345,31.0,36.0,67,-99.99,,,-99.99,,2013-02-05 20:21:00,
2013-02-05 15:32:00,28.0,20.0,29.69,NNW,345,33.0,37.0,70,-99.99,,,-99.99,,2013-02-05 20:32:00,
2013-02-05 15:42:00,28.0,20.0,29.69,NNW,345,33.0,37.0,70,-99.99,,,-99.99,,2013-02-05 20:42:00,
2013-02-05 15:52:00,28.0,20.0,29.69,NNW,345,28.0,35.0,72,-99.99,,,-99.99,,2013-02-05 20:52:00,
2013-02-05 16:02:00,28.0,23.0,29.70,North,350,29.0,39.0,83,-99.99,,,-99.99,,2013-02-05 21:02:00,
2013-02-05 16:11:00,28.0,23.0,29.70,North,350,29.0,39.0,83,-99.99,,,-99.99,,2013-02-05 21:11:00,
2013-02-05 16:22:00,28.0,24.0,29.71,North,0,24.0,34.0,83,-99.99,,,-99.99,,2013-02-05 21:22:00,
2013-02-05 16:32:00,28.0,22.0,29.71,North,0,25.0,36.0,77,-99.99,,,-99.99,,2013-02-05 21:32:00,
2013-02-05 16:42:00,28.0,22.0,29.71,North,0,25.0,36.0,77,-99.99,,,-99.99,,2013-02-05 21:42:00,
2013-02-05 16:52:00,28.0,23.0,29.73,North,0,27.0,35.0,79,-99.99,,,-99.99,,2013-02-05 21:52:00,
2013-02-05 17:01:00,28.0,22.0,29.74,North,0,24.0,34.0,77,-99.99,,,-99.99,,2013-02-05 22:01:00,
2013-02-05 17:11:00,28.0,22.0,29.74,North,0,24.0,34.0,77,-99.99,,,-99.99,,2013-02-05 22:11:00,
2013-02-05 17:21:00,27.0,22.0,29.74,North,355,27.0,34.0,79,-99.99,,,-99.99,,2013-02-05 22:21:00,
2013-02-05 17:32:00,27.0,22.0,29.75,North,350,29.0,37.0,81,-99.99,,,-99.99,,2013-02-05 22:32:00,
2013-02-05 17:42:00,27.0,22.0,29.75,North,350,29.0,37.0,81,-99.99,,,-99.99,,2013-02-05 22:42:00,
2013-02-05 17:51:00,26.0,22.0,29.76,North,350,28.0,39.0,82,-99.99,,,-99.99,,2013-02-05 22:51:00,
2013-02-05 18:02:00,26.0,21.0,29.77,NNW,345,31.0,39.0,81,-99.99,,,-99.99,,2013-02-05 23:02:00,
2013-02-05 18:11:00,26.0,21.0,29.77,NNW,345,31.0,39.0,81,-99.99,,,-99.99,,2013-02-05 23:11:00,
2013-02-05 18:22:00,26.0,22.0,29.78,North,355,28.0,37.0,84,-99.99,,,-99.99,,2013-02-05 23:22:00,
2013-02-05 18:32:00,26.0,21.0,29.79,NNW,345,32.0,39.0,84,-99.99,,,-99.99,,2013-02-05 23:32:00,
2013-02-05 18:42:00,26.0,21.0,29.79,NNW,345,32.0,39.0,84,-99.99,,,-99.99,,2013-02-05 23:42:00,
2013-02-05 18:52:00,25.0,21.0,29.80,NNW,345,31.0,42.0,85,-99.99,,,-99.99,,2013-02-05 23:52:00,
2013-02-05 19:02:00,25.0,21.0,29.81,NNW,345,29.0,42.0,83,-99.99,,,-99.99,,2013-02-06 00:02:00,
2013-02-05 19:11:00,25.0,21.0,29.81,NNW,345,29.0,42.0,83,-99.99,,,-99.99,,2013-02-06 00:11:00,
2013-02-05 19:22:00,25.0,20.0,29.82,NNW,335,32.0,42.0,81,-99.99,,,-99.99,,2013-02-06 00:22:00,
2013-02-05 19:32:00,25.0,20.0,29.83,North,350,33.0,42.0,81,-99.99,,,-99.99,,2013-02-06 00:32:00,
2013-02-05 19:52:00,24.0,20.0,29.84,North,0,31.0,40.0,83,-99.99,,,-99.99,,2013-02-06 00:52:00,
2013-02-05 20:02:00,25.0,20.0,29.85,NNW,345,29.0,35.0,81,-99.99,,,-99.99,,2013-02-06 01:02:00,
2013-02-05 20:22:00,23.0,19.0,29.86,NNW,330,26.0,35.0,84,-99.99,,,-99.99,,2013-02-06 01:22:00,
2013-02-05 20:32:00,23.0,19.0,29.88,NNW,335,26.0,36.0,85,-99.99,,,-99.99,,2013-02-06 01:32:00,
2013-02-05 20:52:00,23.0,18.0,29.88,NW,320,19.0,35.0,82,-99.99,,,-99.99,,2013-02-06 01:52:00,
2013-02-05 21:01:00,22.0,18.0,29.89,NW,325,14.0,29.0,82,-99.99,,,-99.99,,2013-02-06 02:01:00,
2013-02-05 21:22:00,22.0,16.0,29.90,NW,325,13.0,32.0,76,-99.99,,,-99.99,,2013-02-06 02:22:00,
2013-02-05 21:32:00,22.0,16.0,29.90,NNW,330,18.0,33.0,75,-99.99,,,-99.99,,2013-02-06 02:32:00,
2013-02-05 21:52:00,22.0,15.0,29.91,NNW,330,14.0,29.0,75,-99.99,,,-99.99,,2013-02-06 02:52:00,
2013-02-05 22:02:00,22.0,16.0,29.91,NW,320,10.0,28.0,75,-99.99,,,-99.99,,2013-02-06 03:02:00,
2013-02-05 22:22:00,22.0,15.0,29.91,NNW,330,17.0,26.0,73,-99.99,,,-99.99,,2013-02-06 03:22:00,
2013-02-05 22:32:00,22.0,15.0,29.92,NW,325,14.0,27.0,72,-99.99,,,-99.99,,2013-02-06 03:32:00,
2013-02-05 22:52:00,23.0,15.0,29.92,NW,325,14.0,27.0,72,-99.99,,,-99.99,,2013-02-06 03:52:00,
2013-02-05 23:02:00,23.0,15.0,29.94,NW,325,14.0,26.0,72,-99.99,,,-99.99,,2013-02-06 04:02:00,
2013-02-05 23:21:00,23.0,16.0,29.92,NNW,340,19.0,28.0,72,-99.99,,,-99.99,,2013-02-06 04:21:00,
2013-02-05 23:32:00,23.0,15.0,29.94,NW,325,16.0,24.0,72,-99.99,,,-99.99,,2013-02-06 04:32:00,
2013-02-05 23:52:00,23.0,15.0,29.94,NNW,330,17.0,28.0,72,-99.99,,,-99.99,,2013-02-06 04:52:00,